Steptoe, WA

3:18 AM PDT on March 31, 2015 (GMT -0700)
Spokane International | | Change Station
CLOSE
Current Station
Airport
Location: Spokane,
Elevation: 2365 ft
Nearby Weather Stations

Elev 2365 ft 47.62 °N, 117.53 °W | Updated 25 minutes ago

Mostly Cloudy
Mostly Cloudy
48 °F
Feels Like 48 °F
N
7
Wind Variable Wind from SSE

Today
High -- | Low -- °F
--% Chance of Precip.
Yesterday
High -- | Low -- °F
Precip. -- in
6:30 AM 7:17 PM
Waxing Gibbous, 86% visible
Pressure 29.78 in
Visibility 10.0 miles
Clouds Scattered Clouds 14000 ft
Mostly Cloudy 19000 ft
Mostly Cloudy 25000 ft
Dew Point 39 °F
Humidity 71%
Rainfall 0.00 in
Snow Depth Not available.
UV 0 out of 12
Pollen 10.90 out of 12
Air Quality Not available.
Flu Activity Not available.
METAR KGEG 310953Z 16006KT 10SM SCT140 BKN190 BKN250 09/04 A2979 RMK AO2 SLP083 T00890039

More Conditions Fewer Conditions

Pressure 29.78 in
Visibility 10.0 miles
Clouds Scattered Clouds 14000 ft
Mostly Cloudy 19000 ft
Mostly Cloudy 25000 ft
Dew Point 39 °F
Humidity 71%
Rainfall 0.00 in
Snow Depth Not available.
UV 0 out of 12
Pollen 10.90 out of 12
Air Quality Not available.
Flu Activity Not available.
METAR KGEG 310953Z 16006KT 10SM SCT140 BKN190 BKN250 09/04 A2979 RMK AO2 SLP083 T00890039

More Conditions Fewer Conditions

10-Day Weather Forecast

Almanac

Astronomy

Mar. 31, 2015 Rise Set
Actual Time
Civil Twilight
Nautical Twilight
Astronomical Twilight
Moon
Length of Visible Light
Length of Day
Tomorrow will be .
, % of the Moon is Illuminated

Today's Extremes

State Highs State Lows

Community

WunderPhotos

Upload Photos

1,809,733 photos uploaded!

WunderBlogs® & News

Nearby

Air Quality

  Air Quality AQ Index Pollutant
Not available.

Snow Depth

Station Depth Elevation

Earthquake Activity

City Distance Mag. Time & Date
Minimum magnitude displayed is 2.5.

Coastal Water Temperatures

Place Temperature

Stations

Nearby Weather Stations

Station Location Temp. Windchill Dew Point Humidity Wind Precip. Elev Updated Type